createdAt,value
2022-11-20T00:01:17.388Z,91.20
2022-11-20T00:03:44.496Z,91.20
2022-11-20T00:06:13.199Z,91.20
2022-11-20T00:08:40.147Z,91.30
2022-11-20T00:11:15.830Z,91.20
2022-11-20T00:13:44.508Z,91.20
2022-11-20T00:16:12.863Z,91.40
2022-11-20T00:18:39.786Z,91.20
2022-11-20T00:21:08.774Z,91.20
2022-11-20T00:23:35.640Z,91.10
2022-11-20T00:26:04.534Z,91.20
2022-11-20T00:28:31.527Z,91.20
2022-11-20T00:31:07.614Z,91.20
2022-11-20T00:33:34.665Z,91.20
2022-11-20T00:36:09.731Z,91.20
2022-11-20T00:38:36.619Z,91.20
2022-11-20T00:41:05.441Z,91.20
2022-11-20T00:43:32.407Z,91.20
2022-11-20T00:46:06.569Z,91.20
2022-11-20T00:48:33.552Z,91.20
2022-11-20T00:51:00.735Z,91.20
2022-11-20T00:53:27.848Z,91.10
2022-11-20T00:55:59.007Z,91.10
2022-11-20T00:58:26.620Z,91.10
2022-11-20T01:00:53.597Z,91.10
2022-11-20T01:03:25.568Z,91.10
2022-11-20T01:05:53.793Z,91.10
2022-11-20T01:08:20.614Z,91.10
2022-11-20T01:10:47.432Z,91.10
2022-11-20T01:13:32.810Z,91.10
2022-11-20T01:16:10.841Z,91.10
2022-11-20T01:18:38.573Z,91.10
2022-11-20T01:21:10.387Z,91.10
2022-11-20T01:23:39.352Z,91.10
2022-11-20T01:26:08.451Z,91.10
2022-11-20T01:28:35.823Z,91.10
2022-11-20T01:31:03.135Z,91.00
2022-11-20T01:33:30.017Z,91.00
2022-11-20T01:36:05.049Z,91.00
2022-11-20T01:38:31.937Z,91.00
2022-11-20T01:40:58.807Z,91.00
2022-11-20T01:43:26.494Z,91.00
2022-11-20T01:45:59.460Z,91.00
2022-11-20T01:48:49.957Z,91.00
2022-11-20T01:51:28.131Z,91.00
2022-11-20T01:53:55.395Z,91.00
2022-11-20T01:56:22.288Z,91.00
2022-11-20T01:58:51.837Z,91.00
2022-11-20T02:01:18.807Z,91.00
2022-11-20T02:03:45.774Z,91.00
2022-11-20T02:06:25.539Z,91.00
2022-11-20T02:08:53.270Z,91.10
2022-11-20T02:11:20.268Z,91.00
2022-11-20T02:13:47.260Z,91.00
2022-11-20T02:16:24.512Z,91.00
2022-11-20T02:18:51.615Z,91.00
2022-11-20T02:21:24.297Z,91.00
2022-11-20T02:24:06.955Z,91.00
2022-11-20T02:26:37.064Z,91.00
2022-11-20T02:29:04.571Z,91.00
2022-11-20T02:31:44.203Z,91.00
2022-11-20T02:34:11.116Z,91.00
2022-11-20T02:36:38.122Z,90.90
2022-11-20T02:39:05.399Z,90.90
2022-11-20T02:41:34.111Z,90.90
2022-11-20T02:44:01.112Z,90.90
2022-11-20T02:46:28.131Z,91.00
2022-11-20T02:48:54.958Z,91.00
2022-11-20T02:51:21.763Z,91.00
2022-11-20T02:53:48.585Z,91.00
2022-11-20T02:56:15.426Z,91.00
2022-11-20T02:58:42.352Z,91.00
2022-11-20T03:01:09.448Z,91.00
2022-11-20T03:03:36.454Z,91.00
2022-11-20T03:06:03.436Z,91.00
2022-11-20T03:08:30.401Z,91.00
2022-11-20T03:10:57.471Z,91.00
2022-11-20T03:13:25.771Z,91.00
2022-11-20T03:15:52.642Z,91.00
2022-11-20T03:18:25.274Z,91.00
2022-11-20T03:20:58.805Z,91.00
2022-11-20T03:23:28.234Z,90.90
2022-11-20T03:25:55.216Z,90.90
2022-11-20T03:28:22.070Z,90.90
2022-11-20T03:30:49.013Z,90.90
2022-11-20T03:33:16.321Z,90.90
2022-11-20T03:35:43.187Z,90.80
2022-11-20T03:38:10.073Z,90.80
2022-11-20T03:40:37.236Z,90.80
2022-11-20T03:43:04.098Z,90.90
2022-11-20T03:45:30.960Z,90.90
2022-11-20T03:47:57.881Z,90.90
2022-11-20T03:50:24.928Z,90.80
2022-11-20T03:52:51.879Z,90.90
2022-11-20T03:55:18.761Z,90.90
2022-11-20T03:57:45.596Z,91.00
2022-11-20T04:00:13.203Z,90.90
2022-11-20T04:02:40.112Z,91.00
2022-11-20T04:05:07.410Z,91.00
2022-11-20T04:07:35.108Z,91.00
2022-11-20T04:10:04.627Z,91.00
2022-11-20T04:12:34.287Z,91.00
2022-11-20T04:15:01.238Z,91.00
2022-11-20T04:17:28.084Z,91.20
2022-11-20T04:19:56.471Z,91.10
2022-11-20T04:22:23.411Z,91.10
2022-11-20T04:24:50.272Z,91.10
2022-11-20T04:27:17.156Z,91.10
2022-11-20T04:29:43.959Z,91.20
2022-11-20T04:32:10.825Z,91.30
2022-11-20T04:34:37.644Z,91.30
2022-11-20T04:37:04.647Z,91.30
2022-11-20T04:39:31.548Z,91.40
2022-11-20T04:42:16.819Z,91.40
2022-11-20T04:44:43.712Z,91.50
2022-11-20T04:47:10.621Z,91.60
2022-11-20T04:49:37.586Z,91.60
2022-11-20T04:52:04.543Z,91.60
2022-11-20T04:54:31.485Z,91.60
2022-11-20T04:56:58.367Z,91.70
2022-11-20T04:59:25.276Z,91.70
2022-11-20T05:01:52.494Z,91.80
2022-11-20T05:04:19.418Z,91.80
2022-11-20T05:06:46.700Z,91.90
2022-11-20T05:09:13.952Z,91.90
2022-11-20T05:11:40.912Z,91.90
2022-11-20T05:14:07.810Z,92.00
2022-11-20T05:16:35.265Z,92.00
2022-11-20T05:19:02.089Z,92.00
2022-11-20T05:21:31.429Z,92.00
2022-11-20T05:23:58.357Z,92.00
2022-11-20T05:26:25.211Z,92.00
2022-11-20T05:28:52.340Z,92.10
2022-11-20T05:31:26.332Z,92.10
2022-11-20T05:33:54.365Z,92.10
2022-11-20T05:36:21.233Z,92.20
2022-11-20T05:38:50.931Z,92.20
2022-11-20T05:41:19.653Z,92.20
2022-11-20T05:43:47.089Z,92.30
2022-11-20T05:46:15.482Z,92.30
2022-11-20T05:48:42.895Z,92.30
2022-11-20T05:51:10.847Z,92.30
2022-11-20T05:53:37.683Z,92.30
2022-11-20T05:56:10.922Z,92.30
2022-11-20T05:58:37.893Z,92.40
2022-11-20T06:01:12.566Z,92.40
2022-11-20T06:03:39.871Z,92.40
2022-11-20T06:06:07.183Z,92.50
2022-11-20T06:08:34.093Z,92.50
2022-11-20T06:11:04.952Z,92.50
2022-11-20T06:13:31.934Z,92.50
2022-11-20T06:15:58.831Z,92.50
2022-11-20T06:18:27.534Z,92.50
2022-11-20T06:21:13.082Z,92.50
2022-11-20T06:23:40.008Z,92.50
2022-11-20T06:26:08.379Z,92.40
2022-11-20T06:28:35.322Z,92.50
2022-11-20T06:31:02.505Z,92.50
2022-11-20T06:33:29.490Z,92.50
2022-11-20T06:36:08.980Z,92.60
2022-11-20T06:38:37.430Z,92.70
2022-11-20T06:41:05.140Z,92.70
2022-11-20T06:43:31.949Z,92.70
2022-11-20T06:45:59.446Z,92.70
2022-11-20T06:48:29.446Z,92.70
2022-11-20T06:50:56.758Z,92.80
2022-11-20T06:53:24.021Z,92.80
2022-11-20T06:55:51.214Z,92.90
2022-11-20T06:58:18.630Z,92.90
2022-11-20T07:00:45.625Z,92.90
2022-11-20T07:03:12.918Z,92.90
2022-11-20T07:05:39.782Z,93.00
2022-11-20T07:08:06.911Z,93.00
2022-11-20T07:10:33.857Z,93.00
2022-11-20T07:13:00.738Z,93.00
2022-11-20T07:15:27.899Z,93.00
2022-11-20T07:17:54.811Z,93.00
2022-11-20T07:20:21.715Z,93.10
2022-11-20T07:22:48.635Z,93.10
2022-11-20T07:25:15.599Z,93.10
2022-11-20T07:27:42.411Z,93.30
2022-11-20T07:30:09.691Z,93.10
2022-11-20T07:32:36.871Z,93.20
2022-11-20T07:35:03.790Z,93.20
2022-11-20T07:37:30.671Z,93.10
2022-11-20T07:39:57.513Z,93.10
2022-11-20T07:42:24.448Z,93.20
2022-11-20T07:44:51.700Z,93.30
2022-11-20T07:47:18.543Z,93.50
2022-11-20T07:49:45.400Z,93.60
2022-11-20T07:52:12.188Z,93.70
2022-11-20T07:54:39.068Z,93.70
2022-11-20T07:57:05.875Z,93.70
2022-11-20T07:59:32.726Z,93.70
2022-11-20T08:01:59.769Z,93.70
2022-11-20T08:04:26.595Z,93.70
2022-11-20T08:06:53.649Z,93.70
2022-11-20T08:09:20.693Z,93.70
2022-11-20T08:12:06.268Z,93.80
2022-11-20T08:14:33.126Z,93.80
2022-11-20T08:17:00.599Z,93.80
2022-11-20T08:19:27.513Z,93.70
2022-11-20T08:21:54.394Z,93.70
2022-11-20T08:24:21.328Z,93.70
2022-11-20T08:26:50.640Z,93.70
2022-11-20T08:29:17.544Z,93.70
2022-11-20T08:31:44.458Z,93.80
2022-11-20T08:34:13.860Z,93.80
2022-11-20T08:36:44.760Z,93.80
2022-11-20T08:39:15.243Z,93.80
2022-11-20T08:41:48.319Z,93.80
2022-11-20T08:44:20.470Z,93.90
2022-11-20T08:46:48.080Z,93.90
2022-11-20T08:49:15.231Z,93.90
2022-11-20T08:51:42.382Z,93.80
2022-11-20T08:54:12.451Z,93.90
2022-11-20T08:56:39.321Z,93.90
2022-11-20T08:59:43.442Z,94.10
2022-11-20T09:01:53.048Z,94.30
2022-11-20T09:04:19.969Z,94.20
2022-11-20T09:06:47.266Z,94.00
2022-11-20T09:09:14.233Z,93.70
2022-11-20T09:11:41.092Z,93.50
2022-11-20T09:14:07.975Z,93.30
2022-11-20T09:16:34.843Z,93.10
2022-11-20T09:19:33.639Z,93.10
2022-11-20T09:21:48.592Z,93.10
2022-11-20T09:24:15.490Z,93.10
2022-11-20T09:26:42.367Z,93.10
2022-11-20T09:29:09.336Z,93.10
2022-11-20T09:31:36.213Z,93.10
2022-11-20T09:34:03.145Z,93.10
2022-11-20T09:36:30.092Z,93.20
2022-11-20T09:38:57.821Z,93.30
2022-11-20T09:42:01.822Z,93.30
2022-11-20T09:44:31.510Z,93.50
2022-11-20T09:47:01.543Z,93.50
2022-11-20T09:49:37.876Z,93.60
2022-11-20T09:52:28.094Z,93.60
2022-11-20T09:54:54.965Z,93.50
2022-11-20T09:57:24.318Z,93.40
2022-11-20T09:59:52.329Z,93.30
2022-11-20T10:02:25.402Z,93.20
2022-11-20T10:05:10.239Z,93.20
2022-11-20T10:07:43.331Z,93.20
2022-11-20T10:10:44.229Z,93.20
2022-11-20T10:13:30.347Z,93.30
2022-11-20T10:16:01.329Z,93.30
2022-11-20T10:18:33.728Z,93.20
2022-11-20T10:21:21.643Z,93.20
2022-11-20T10:24:04.020Z,93.20
2022-11-20T10:26:56.862Z,93.00
2022-11-20T10:29:30.234Z,92.90
2022-11-20T10:32:00.940Z,92.70
2022-11-20T10:34:36.549Z,92.60
2022-11-20T10:37:12.341Z,92.40
2022-11-20T10:40:00.486Z,92.30
2022-11-20T10:42:38.897Z,92.00
2022-11-20T10:45:24.696Z,92.00
2022-11-20T10:47:53.891Z,92.00
2022-11-20T10:50:22.559Z,92.00
2022-11-20T10:53:05.114Z,91.90
2022-11-20T10:55:53.737Z,92.00
2022-11-20T10:58:38.606Z,91.90
2022-11-20T11:01:19.548Z,91.80
2022-11-20T11:03:46.540Z,91.80
2022-11-20T11:06:36.749Z,91.70
2022-11-20T11:09:37.014Z,91.40
2022-11-20T11:12:08.339Z,91.20
2022-11-20T11:14:44.184Z,91.10
2022-11-20T11:17:22.149Z,90.80
2022-11-20T11:20:08.352Z,90.70
2022-11-20T11:22:36.243Z,90.60
2022-11-20T11:25:03.268Z,90.60
2022-11-20T11:27:30.167Z,90.60
2022-11-20T11:30:12.979Z,90.70
2022-11-20T11:32:39.878Z,90.70
2022-11-20T11:35:08.039Z,90.60
2022-11-20T11:37:36.823Z,90.40
2022-11-20T11:40:23.442Z,90.20
2022-11-20T11:42:58.602Z,90.00
2022-11-20T11:45:25.499Z,89.50
2022-11-20T11:47:52.735Z,89.20
2022-11-20T11:50:22.021Z,88.60
2022-11-20T11:52:58.406Z,88.00
2022-11-20T11:55:25.327Z,87.50
2022-11-20T11:58:17.793Z,86.90
2022-11-20T12:00:59.961Z,85.90
2022-11-20T12:03:30.607Z,85.20
2022-11-20T12:06:00.767Z,84.80
2022-11-20T12:08:46.037Z,84.20
2022-11-20T12:11:31.724Z,83.50
2022-11-20T12:14:12.035Z,83.10
2022-11-20T12:16:39.286Z,82.40
2022-11-20T12:19:13.713Z,82.00
2022-11-20T12:22:17.558Z,81.10
2022-11-20T12:24:54.549Z,80.30
2022-11-20T12:27:33.247Z,80.30
2022-11-20T12:30:09.251Z,80.00
2022-11-20T12:32:46.027Z,79.90
2022-11-20T12:35:12.969Z,80.00
2022-11-20T12:37:57.848Z,79.60
2022-11-20T12:40:42.601Z,78.80
2022-11-20T12:43:39.344Z,77.90
2022-11-20T12:46:36.849Z,77.90
2022-11-20T12:49:31.888Z,77.40
2022-11-20T12:52:00.662Z,77.20
2022-11-20T12:54:39.947Z,77.00
2022-11-20T12:57:21.483Z,76.60
2022-11-20T13:00:11.925Z,75.60
2022-11-20T13:03:03.062Z,75.10
2022-11-20T13:05:58.106Z,74.50
2022-11-20T13:08:26.734Z,74.00
2022-11-20T13:11:22.227Z,73.70
2022-11-20T13:14:23.097Z,73.30
2022-11-20T13:17:06.387Z,73.00
2022-11-20T13:19:33.485Z,72.60
2022-11-20T13:22:00.322Z,72.20
2022-11-20T13:24:30.952Z,71.90
2022-11-20T13:27:13.829Z,71.70
2022-11-20T13:29:43.912Z,71.60
2022-11-20T13:32:17.733Z,71.10
2022-11-20T13:34:58.774Z,70.40
2022-11-20T13:37:32.604Z,70.10
2022-11-20T13:40:12.067Z,70.50
2022-11-20T13:42:46.689Z,70.90
2022-11-20T13:45:27.921Z,71.60
2022-11-20T13:47:55.093Z,72.00
2022-11-20T13:50:39.101Z,72.60
2022-11-20T13:53:21.420Z,72.60
2022-11-20T13:56:09.089Z,72.70
2022-11-20T13:58:46.183Z,72.70
2022-11-20T14:01:22.311Z,72.80
2022-11-20T14:04:06.529Z,73.10
2022-11-20T14:06:52.719Z,73.90
2022-11-20T14:09:30.280Z,74.40
2022-11-20T14:11:57.814Z,74.70
2022-11-20T14:14:29.087Z,75.10
2022-11-20T14:17:09.265Z,75.20
2022-11-20T14:19:38.068Z,75.50
2022-11-20T14:22:21.312Z,75.70
2022-11-20T14:25:02.294Z,75.90
2022-11-20T14:27:29.191Z,76.10
2022-11-20T14:29:56.155Z,76.20
2022-11-20T14:32:24.842Z,76.30
2022-11-20T14:34:51.691Z,76.40
2022-11-20T14:37:24.081Z,76.50
2022-11-20T14:39:55.484Z,76.50
2022-11-20T14:42:26.845Z,76.40
2022-11-20T14:44:57.906Z,76.50
2022-11-20T14:47:26.799Z,76.50
2022-11-20T14:49:54.286Z,76.80
2022-11-20T14:52:23.052Z,76.90
2022-11-20T14:54:51.322Z,77.10
2022-11-20T14:57:31.055Z,77.30
2022-11-20T15:00:15.962Z,77.40
2022-11-20T15:02:43.540Z,77.60
2022-11-20T15:05:10.465Z,77.80
2022-11-20T15:07:41.026Z,77.90
2022-11-20T15:10:12.902Z,78.20
2022-11-20T15:12:47.727Z,78.40
2022-11-20T15:15:18.422Z,79.10
2022-11-20T15:17:45.209Z,78.80
2022-11-20T15:20:14.614Z,78.90
2022-11-20T15:22:41.493Z,79.00
2022-11-20T15:25:18.486Z,79.30
2022-11-20T15:27:45.660Z,79.60
2022-11-20T15:30:17.958Z,79.80
2022-11-20T15:32:45.023Z,80.00
2022-11-20T15:35:11.969Z,80.10
2022-11-20T15:37:38.973Z,80.30
2022-11-20T15:40:06.486Z,80.40
2022-11-20T15:42:33.742Z,80.50
2022-11-20T15:45:00.697Z,80.60
2022-11-20T15:47:34.756Z,80.70
2022-11-20T15:50:01.741Z,80.80
2022-11-20T15:52:30.543Z,80.90
2022-11-20T15:55:09.636Z,81.00
2022-11-20T15:57:36.774Z,81.10
2022-11-20T16:00:04.288Z,81.20
2022-11-20T16:02:37.952Z,81.30
2022-11-20T16:05:05.397Z,81.40
2022-11-20T16:07:32.361Z,81.50
2022-11-20T16:09:59.435Z,81.50
2022-11-20T16:12:44.784Z,81.70
2022-11-20T16:15:29.807Z,81.90
2022-11-20T16:17:57.066Z,82.20
2022-11-20T16:20:24.227Z,82.30
2022-11-20T16:22:51.123Z,83.00
2022-11-20T16:25:17.978Z,82.60
2022-11-20T16:27:44.905Z,82.70
2022-11-20T16:30:11.952Z,82.90
2022-11-20T16:32:40.160Z,83.00
2022-11-20T16:35:08.460Z,83.20
2022-11-20T16:37:35.350Z,83.30
2022-11-20T16:40:02.154Z,83.50
2022-11-20T16:42:28.984Z,83.60
2022-11-20T16:44:55.818Z,83.70
2022-11-20T16:47:22.728Z,83.80
2022-11-20T16:49:49.647Z,83.90
2022-11-20T16:52:16.858Z,83.90
2022-11-20T16:54:44.191Z,84.00
2022-11-20T16:57:11.152Z,84.10
2022-11-20T16:59:38.011Z,84.10
2022-11-20T17:02:04.792Z,84.20
2022-11-20T17:04:31.614Z,84.30
2022-11-20T17:07:00.480Z,84.40
2022-11-20T17:09:29.601Z,84.50
2022-11-20T17:11:56.453Z,84.60
2022-11-20T17:14:23.795Z,84.70
2022-11-20T17:16:51.259Z,84.80
2022-11-20T17:19:18.167Z,84.90
2022-11-20T17:21:45.107Z,84.90
2022-11-20T17:24:12.671Z,85.00
2022-11-20T17:26:40.614Z,84.90
2022-11-20T17:29:11.782Z,85.00
2022-11-20T17:31:38.950Z,85.10
2022-11-20T17:34:07.122Z,85.10
2022-11-20T17:36:34.633Z,85.20
2022-11-20T17:39:01.615Z,85.40
2022-11-20T17:41:29.324Z,85.50
2022-11-20T17:43:59.648Z,85.70
2022-11-20T17:46:28.105Z,85.90
2022-11-20T17:48:55.600Z,85.90
2022-11-20T17:51:24.474Z,86.00
2022-11-20T17:53:53.013Z,86.20
2022-11-20T17:56:38.879Z,86.20
2022-11-20T17:59:10.475Z,86.30
2022-11-20T18:01:37.570Z,86.50
2022-11-20T18:04:04.446Z,86.70
2022-11-20T18:06:31.769Z,87.00
2022-11-20T18:08:59.750Z,87.20
2022-11-20T18:11:28.606Z,87.50
2022-11-20T18:14:15.782Z,87.60
2022-11-20T18:16:53.827Z,87.70
2022-11-20T18:19:23.709Z,87.90
2022-11-20T18:21:50.826Z,88.00
2022-11-20T18:24:17.799Z,88.40
2022-11-20T18:26:44.764Z,88.80
2022-11-20T18:29:12.456Z,88.90
2022-11-20T18:31:39.573Z,88.70
2022-11-20T18:34:07.678Z,88.70
2022-11-20T18:36:34.547Z,88.80
2022-11-20T18:39:01.830Z,88.90
2022-11-20T18:41:48.633Z,89.10
2022-11-20T18:44:38.518Z,89.20
2022-11-20T18:47:12.753Z,89.30
2022-11-20T18:49:42.388Z,89.50
2022-11-20T18:52:09.300Z,89.60
2022-11-20T18:54:36.977Z,89.70
2022-11-20T18:57:04.858Z,89.90
2022-11-20T18:59:32.116Z,90.00
2022-11-20T19:01:59.160Z,90.20
2022-11-20T19:04:26.606Z,90.00
2022-11-20T19:06:56.247Z,90.10
2022-11-20T19:09:23.869Z,90.20
2022-11-20T19:11:51.771Z,90.20
2022-11-20T19:14:18.831Z,90.30
2022-11-20T19:16:47.665Z,90.30
2022-11-20T19:19:14.871Z,90.30
2022-11-20T19:21:42.313Z,90.30
2022-11-20T19:24:09.258Z,90.30
2022-11-20T19:26:36.949Z,90.30
2022-11-20T19:29:04.629Z,90.30
2022-11-20T19:31:31.695Z,90.40
2022-11-20T19:34:00.848Z,90.40
2022-11-20T19:36:35.168Z,90.40
2022-11-20T19:39:02.941Z,90.40
2022-11-20T19:41:31.386Z,90.40
2022-11-20T19:43:59.645Z,90.40
2022-11-20T19:46:26.917Z,90.40
2022-11-20T19:48:54.482Z,90.50
2022-11-20T19:51:26.436Z,90.60
2022-11-20T19:53:55.025Z,90.60
2022-11-20T19:56:22.763Z,90.40
2022-11-20T19:58:49.724Z,90.20
2022-11-20T20:01:18.607Z,90.10
2022-11-20T20:03:46.098Z,90.10
2022-11-20T20:06:20.905Z,90.10
2022-11-20T20:08:53.406Z,90.10
2022-11-20T20:11:21.331Z,90.10
2022-11-20T20:13:48.399Z,90.20
2022-11-20T20:16:20.338Z,90.20
2022-11-20T20:18:47.309Z,90.30
2022-11-20T20:21:18.666Z,90.30
2022-11-20T20:23:45.738Z,90.30
2022-11-20T20:26:12.589Z,90.40
2022-11-20T20:28:39.533Z,90.40
2022-11-20T20:31:11.313Z,90.40
2022-11-20T20:33:39.114Z,90.40
2022-11-20T20:36:06.856Z,90.50
2022-11-20T20:38:33.810Z,90.50
2022-11-20T20:41:00.812Z,90.50
2022-11-20T20:43:27.943Z,90.50
2022-11-20T20:45:55.322Z,90.50
2022-11-20T20:48:23.714Z,90.60
2022-11-20T20:51:01.097Z,90.60
2022-11-20T20:53:29.977Z,90.60
2022-11-20T20:55:57.837Z,90.70
2022-11-20T20:58:24.851Z,91.00
2022-11-20T21:00:51.844Z,90.70
2022-11-20T21:03:18.982Z,90.70
2022-11-20T21:05:46.159Z,90.70
2022-11-20T21:08:22.439Z,90.80
2022-11-20T21:10:49.501Z,90.80
2022-11-20T21:13:16.341Z,90.80
2022-11-20T21:15:43.384Z,90.80
2022-11-20T21:18:10.328Z,90.90
2022-11-20T21:20:58.603Z,90.90
2022-11-20T21:23:25.587Z,90.90
2022-11-20T21:25:52.483Z,91.00
2022-11-20T21:28:19.450Z,91.00
2022-11-20T21:30:46.771Z,91.00
2022-11-20T21:33:14.115Z,91.00
2022-11-20T21:35:41.496Z,91.00
2022-11-20T21:38:08.420Z,91.10
2022-11-20T21:40:35.523Z,91.10
2022-11-20T21:43:02.390Z,91.10
2022-11-20T21:45:29.315Z,91.10
2022-11-20T21:47:56.334Z,91.10
2022-11-20T21:50:23.254Z,91.10
2022-11-20T21:52:50.347Z,91.10
2022-11-20T21:55:17.320Z,91.10
2022-11-20T21:57:44.238Z,91.10
2022-11-20T22:00:12.179Z,91.10
2022-11-20T22:02:40.381Z,91.20
2022-11-20T22:05:08.406Z,91.20
2022-11-20T22:07:35.522Z,91.20
2022-11-20T22:10:02.689Z,91.20
2022-11-20T22:12:29.648Z,91.20
2022-11-20T22:14:56.654Z,91.20
2022-11-20T22:17:43.568Z,91.20
2022-11-20T22:20:11.258Z,91.20
2022-11-20T22:22:40.338Z,91.50
2022-11-20T22:25:07.601Z,91.30
2022-11-20T22:27:34.548Z,91.30
2022-11-20T22:30:01.464Z,91.30
2022-11-20T22:32:28.426Z,91.30
2022-11-20T22:34:55.226Z,91.20
2022-11-20T22:37:29.697Z,91.20
2022-11-20T22:39:57.021Z,91.20
2022-11-20T22:42:26.037Z,91.10
2022-11-20T22:44:53.236Z,91.10
2022-11-20T22:47:20.441Z,91.10
2022-11-20T22:49:50.624Z,91.10
2022-11-20T22:52:17.510Z,91.10
2022-11-20T22:54:47.135Z,91.00
2022-11-20T22:57:13.992Z,91.10
2022-11-20T22:59:41.607Z,91.00
2022-11-20T23:02:10.140Z,91.00
2022-11-20T23:04:37.045Z,91.00
2022-11-20T23:07:04.624Z,91.00
2022-11-20T23:09:32.671Z,91.00
2022-11-20T23:12:00.005Z,91.00
2022-11-20T23:14:27.981Z,91.00
2022-11-20T23:16:54.988Z,91.00
2022-11-20T23:19:22.638Z,91.00
2022-11-20T23:21:49.581Z,91.00
2022-11-20T23:24:16.514Z,91.00
2022-11-20T23:26:45.196Z,91.00
2022-11-20T23:29:12.976Z,91.00
2022-11-20T23:31:39.951Z,91.00
2022-11-20T23:34:06.838Z,91.00
2022-11-20T23:36:33.756Z,90.90
2022-11-20T23:39:00.786Z,90.90
2022-11-20T23:41:27.776Z,90.90
2022-11-20T23:43:54.661Z,90.90
2022-11-20T23:46:22.814Z,90.90
2022-11-20T23:48:49.698Z,90.80
2022-11-20T23:51:16.772Z,90.80
2022-11-20T23:53:43.722Z,90.90
2022-11-20T23:56:11.124Z,90.80
2022-11-20T23:58:38.491Z,90.70
